createdAt,value
2023-05-14T00:01:04.741Z,11.80
2023-05-14T00:03:31.600Z,8.77
2023-05-14T00:05:58.462Z,16.53
2023-05-14T00:08:25.250Z,7.80
2023-05-14T00:10:52.462Z,8.57
2023-05-14T00:13:19.179Z,9.10
2023-05-14T00:15:45.931Z,8.27
2023-05-14T00:18:12.682Z,7.60
2023-05-14T00:20:41.273Z,8.33
2023-05-14T00:23:08.083Z,7.93
2023-05-14T00:25:34.825Z,8.07
2023-05-14T00:28:01.630Z,7.47
2023-05-14T00:30:28.472Z,8.67
2023-05-14T00:32:55.332Z,8.80
2023-05-14T00:35:22.278Z,11.03
2023-05-14T00:37:49.082Z,11.00
2023-05-14T00:40:16.195Z,12.80
2023-05-14T00:42:42.957Z,9.37
2023-05-14T00:45:10.119Z,10.20
2023-05-14T00:47:39.249Z,10.40
2023-05-14T00:50:06.695Z,10.43
2023-05-14T00:52:33.603Z,10.43
2023-05-14T00:55:03.181Z,9.07
2023-05-14T00:57:29.936Z,13.73
2023-05-14T00:59:56.868Z,9.77
2023-05-14T01:02:23.795Z,11.07
2023-05-14T01:04:51.905Z,11.67
2023-05-14T01:07:27.448Z,15.00
2023-05-14T01:10:03.157Z,16.33
2023-05-14T01:12:50.638Z,11.43
2023-05-14T01:15:32.200Z,12.20
2023-05-14T01:18:08.736Z,12.97
2023-05-14T01:20:36.432Z,10.90
2023-05-14T01:23:03.694Z,10.00
2023-05-14T01:25:31.401Z,15.63
2023-05-14T01:28:17.890Z,10.97
2023-05-14T01:30:44.554Z,12.80
2023-05-14T01:33:16.781Z,11.90
2023-05-14T01:35:44.444Z,12.93
2023-05-14T01:38:14.081Z,14.00
2023-05-14T01:40:41.759Z,10.90
2023-05-14T01:43:08.805Z,12.27
2023-05-14T01:45:36.576Z,12.40
2023-05-14T01:48:04.905Z,11.40
2023-05-14T01:50:31.651Z,15.00
2023-05-14T01:52:58.434Z,11.90
2023-05-14T01:55:25.699Z,11.40
2023-05-14T01:57:55.343Z,12.80
2023-05-14T02:00:24.223Z,9.37
2023-05-14T02:02:51.400Z,11.97
2023-05-14T02:05:18.768Z,13.80
2023-05-14T02:07:45.577Z,13.57
2023-05-14T02:10:12.320Z,12.00
2023-05-14T02:12:39.051Z,18.33
2023-05-14T02:15:06.393Z,11.90
2023-05-14T02:17:33.306Z,12.30
2023-05-14T02:19:59.984Z,13.90
2023-05-14T02:22:26.941Z,16.20
2023-05-14T02:24:53.755Z,13.37
2023-05-14T02:27:21.362Z,12.13
2023-05-14T02:29:48.076Z,12.73
2023-05-14T02:32:14.817Z,15.47
2023-05-14T02:34:41.636Z,15.50
2023-05-14T02:37:08.337Z,14.53
2023-05-14T02:39:35.125Z,16.73
2023-05-14T02:42:01.909Z,17.57
2023-05-14T02:44:28.751Z,17.90
2023-05-14T02:46:55.518Z,16.70
2023-05-14T02:49:22.306Z,12.77
2023-05-14T02:51:49.063Z,19.87
2023-05-14T02:54:16.729Z,17.57
2023-05-14T02:56:43.502Z,17.03
2023-05-14T02:59:10.443Z,17.70
2023-05-14T03:01:37.617Z,15.33
2023-05-14T03:04:05.069Z,16.43
2023-05-14T03:06:31.995Z,15.77
2023-05-14T03:08:58.710Z,15.30
2023-05-14T03:11:25.882Z,17.03
2023-05-14T03:13:52.579Z,14.50
2023-05-14T03:16:19.269Z,15.60
2023-05-14T03:18:46.079Z,16.57
2023-05-14T03:21:13.006Z,14.30
2023-05-14T03:23:39.946Z,13.27
2023-05-14T03:26:06.777Z,13.83
2023-05-14T03:28:33.741Z,14.93
2023-05-14T03:31:01.185Z,16.73
2023-05-14T03:33:28.297Z,16.10
2023-05-14T03:35:55.136Z,15.13
2023-05-14T03:38:21.863Z,14.30
2023-05-14T03:40:48.662Z,13.37
2023-05-14T03:43:16.354Z,15.27
2023-05-14T03:45:43.073Z,17.00
2023-05-14T03:48:09.964Z,14.70
2023-05-14T03:50:36.836Z,15.33
2023-05-14T03:53:03.515Z,15.23
2023-05-14T03:55:30.249Z,14.30
2023-05-14T03:57:57.020Z,17.97
2023-05-14T04:00:23.952Z,12.70
2023-05-14T04:02:50.969Z,14.47
2023-05-14T04:05:17.853Z,15.33
2023-05-14T04:07:45.837Z,15.07
2023-05-14T04:10:13.772Z,16.30
2023-05-14T04:12:40.672Z,21.63
2023-05-14T04:15:08.151Z,17.70
2023-05-14T04:17:35.247Z,15.03
2023-05-14T04:20:02.124Z,16.50
2023-05-14T04:22:28.976Z,22.17
2023-05-14T04:24:55.661Z,15.60
2023-05-14T04:27:22.480Z,16.57
2023-05-14T04:29:52.218Z,15.77
2023-05-14T04:32:19.068Z,14.67
2023-05-14T04:34:46.918Z,14.97
2023-05-14T04:37:14.040Z,15.40
2023-05-14T04:39:40.823Z,19.23
2023-05-14T04:42:07.996Z,17.90
2023-05-14T04:44:35.314Z,16.30
2023-05-14T04:47:02.742Z,17.00
2023-05-14T04:49:29.784Z,17.50
2023-05-14T04:51:56.547Z,16.53
2023-05-14T04:54:23.390Z,14.43
2023-05-14T04:56:50.790Z,19.87
2023-05-14T04:59:17.636Z,18.70
2023-05-14T05:01:45.433Z,16.07
2023-05-14T05:04:12.718Z,17.17
2023-05-14T05:06:39.702Z,16.47
2023-05-14T05:09:06.505Z,21.37
2023-05-14T05:11:33.287Z,15.87
2023-05-14T05:14:00.004Z,16.40
2023-05-14T05:16:26.870Z,15.80
2023-05-14T05:18:53.808Z,16.30
2023-05-14T05:21:20.700Z,17.10
2023-05-14T05:23:47.498Z,17.07
2023-05-14T05:26:14.194Z,13.93
2023-05-14T05:28:40.916Z,18.13
2023-05-14T05:31:08.059Z,21.00
2023-05-14T05:33:35.651Z,16.10
2023-05-14T05:36:02.829Z,18.63
2023-05-14T05:38:29.629Z,17.77
2023-05-14T05:40:56.389Z,15.77
2023-05-14T05:43:23.199Z,19.13
2023-05-14T05:45:52.805Z,14.73
2023-05-14T05:48:19.790Z,16.77
2023-05-14T05:50:50.213Z,15.73
2023-05-14T05:53:16.965Z,16.03
2023-05-14T05:55:43.741Z,15.03
2023-05-14T05:58:10.640Z,18.30
2023-05-14T06:00:37.408Z,17.00
2023-05-14T06:03:04.151Z,18.10
2023-05-14T06:05:30.958Z,15.57
2023-05-14T06:07:57.767Z,18.83
2023-05-14T06:10:24.665Z,15.43
2023-05-14T06:12:51.595Z,15.90
2023-05-14T06:15:18.697Z,15.73
2023-05-14T06:17:45.933Z,15.20
2023-05-14T06:20:12.946Z,13.10
2023-05-14T06:22:39.746Z,14.33
2023-05-14T06:25:06.898Z,14.23
2023-05-14T06:27:33.686Z,14.17
2023-05-14T06:30:00.496Z,13.90
2023-05-14T06:32:27.248Z,11.83
2023-05-14T06:34:53.981Z,15.67
2023-05-14T06:37:20.811Z,18.63
2023-05-14T06:39:50.219Z,13.83
2023-05-14T06:42:17.937Z,12.73
2023-05-14T06:44:45.280Z,11.97
2023-05-14T06:47:12.091Z,13.30
2023-05-14T06:49:39.432Z,14.30
2023-05-14T06:52:06.708Z,11.83
2023-05-14T06:54:33.551Z,13.17
2023-05-14T06:57:00.383Z,10.40
2023-05-14T06:59:27.230Z,11.07
2023-05-14T07:01:54.080Z,9.20
2023-05-14T07:04:20.947Z,8.90
2023-05-14T07:06:47.721Z,12.50
2023-05-14T07:09:14.455Z,11.73
2023-05-14T07:11:41.640Z,10.90
2023-05-14T07:14:08.367Z,10.73
2023-05-14T07:16:36.023Z,8.97
2023-05-14T07:19:02.868Z,9.53
2023-05-14T07:21:29.598Z,8.13
2023-05-14T07:23:56.300Z,8.17
2023-05-14T07:26:24.564Z,11.27
2023-05-14T07:28:51.424Z,8.87
2023-05-14T07:31:18.247Z,12.90
2023-05-14T07:33:45.277Z,9.90
2023-05-14T07:36:12.130Z,9.07
2023-05-14T07:38:39.065Z,9.07
2023-05-14T07:41:05.853Z,10.13
2023-05-14T07:43:32.698Z,8.87
2023-05-14T07:45:59.443Z,8.90
2023-05-14T07:48:26.298Z,8.80
2023-05-14T07:50:53.143Z,9.60
2023-05-14T07:53:19.866Z,9.10
2023-05-14T07:55:48.439Z,9.10
2023-05-14T07:58:15.636Z,9.90
2023-05-14T08:00:42.381Z,11.30
2023-05-14T08:03:09.244Z,9.60
2023-05-14T08:05:36.093Z,7.73
2023-05-14T08:08:02.971Z,8.47
2023-05-14T08:10:29.885Z,8.73
2023-05-14T08:12:56.759Z,7.60
2023-05-14T08:15:25.742Z,8.80
2023-05-14T08:17:53.873Z,8.80
2023-05-14T08:20:20.839Z,8.23
2023-05-14T08:22:47.648Z,7.63
2023-05-14T08:25:14.525Z,7.37
2023-05-14T08:27:41.252Z,6.27
2023-05-14T08:30:08.396Z,6.00
2023-05-14T08:32:35.265Z,8.47
2023-05-14T08:35:02.243Z,6.53
2023-05-14T08:37:29.041Z,7.33
2023-05-14T08:39:56.310Z,5.70
2023-05-14T08:42:25.217Z,10.20
2023-05-14T08:45:04.646Z,8.27
2023-05-14T08:47:32.454Z,6.87
2023-05-14T08:50:08.110Z,6.87
2023-05-14T08:52:35.251Z,7.20
2023-05-14T08:55:05.603Z,5.60
2023-05-14T08:57:35.411Z,6.67
2023-05-14T09:00:08.398Z,6.47
2023-05-14T09:02:36.767Z,6.90
2023-05-14T09:05:04.223Z,6.80
2023-05-14T09:07:31.724Z,6.27
2023-05-14T09:09:59.624Z,10.07
2023-05-14T09:12:27.517Z,6.67
2023-05-14T09:14:54.394Z,5.80
2023-05-14T09:17:21.306Z,6.33
2023-05-14T09:19:49.298Z,6.27
2023-05-14T09:22:17.628Z,7.40
2023-05-14T09:24:44.876Z,9.00
2023-05-14T09:27:21.389Z,6.87
2023-05-14T09:29:48.579Z,6.50
2023-05-14T09:32:15.449Z,8.03
2023-05-14T09:34:42.378Z,6.70
2023-05-14T09:37:10.038Z,5.27
2023-05-14T09:39:37.868Z,5.50
2023-05-14T09:42:05.441Z,5.77
2023-05-14T09:44:32.304Z,5.50
2023-05-14T09:46:59.285Z,9.33
2023-05-14T09:49:26.165Z,7.50
2023-05-14T09:51:53.007Z,6.93
2023-05-14T09:54:19.802Z,5.10
2023-05-14T09:56:46.603Z,4.93
2023-05-14T09:59:13.485Z,7.73
2023-05-14T10:01:42.874Z,5.10
2023-05-14T10:04:11.277Z,6.53
2023-05-14T10:06:39.685Z,4.60
2023-05-14T10:09:12.565Z,5.67
2023-05-14T10:11:43.805Z,5.30
2023-05-14T10:14:24.955Z,5.47
2023-05-14T10:16:53.097Z,5.87
2023-05-14T10:19:23.652Z,5.30
2023-05-14T10:22:00.871Z,4.83
2023-05-14T10:24:28.112Z,8.00
2023-05-14T10:26:55.098Z,5.00
2023-05-14T10:29:33.423Z,4.60
2023-05-14T10:32:08.181Z,6.70
2023-05-14T10:34:37.950Z,6.10
2023-05-14T10:37:09.984Z,5.40
2023-05-14T10:39:47.569Z,3.50
2023-05-14T10:42:43.580Z,6.20
2023-05-14T10:45:13.226Z,3.77
2023-05-14T10:47:44.805Z,10.43
2023-05-14T10:50:13.154Z,4.40
2023-05-14T10:52:44.053Z,4.30
2023-05-14T10:55:14.410Z,4.10
2023-05-14T10:57:44.599Z,3.30
2023-05-14T11:00:14.171Z,3.57
2023-05-14T11:02:45.285Z,3.97
2023-05-14T11:05:16.776Z,3.63
2023-05-14T11:07:45.445Z,4.23
2023-05-14T11:10:14.320Z,4.67
2023-05-14T11:12:44.716Z,3.73
2023-05-14T11:15:22.088Z,3.20
2023-05-14T11:17:50.591Z,5.13
2023-05-14T11:20:18.165Z,2.93
2023-05-14T11:22:46.529Z,3.60
2023-05-14T11:25:14.875Z,2.57
2023-05-14T11:27:44.415Z,3.00
2023-05-14T11:30:16.240Z,8.73
2023-05-14T11:32:45.580Z,2.60
2023-05-14T11:35:13.091Z,4.40
2023-05-14T11:37:40.143Z,3.73
2023-05-14T11:40:18.767Z,2.83
2023-05-14T11:42:45.931Z,3.50
2023-05-14T11:45:13.768Z,3.60
2023-05-14T11:47:43.680Z,2.73
2023-05-14T11:50:11.245Z,4.30
2023-05-14T11:52:40.424Z,2.47
2023-05-14T11:55:11.710Z,2.87
2023-05-14T11:57:38.721Z,2.40
2023-05-14T12:00:09.228Z,7.13
2023-05-14T12:02:37.274Z,3.93
2023-05-14T12:05:07.298Z,3.27
2023-05-14T12:07:34.002Z,3.33
2023-05-14T12:10:03.411Z,7.00
2023-05-14T12:12:36.278Z,2.70
2023-05-14T12:15:10.513Z,3.47
2023-05-14T12:17:38.257Z,5.27
2023-05-14T12:20:08.221Z,2.90
2023-05-14T12:22:37.006Z,2.50
2023-05-14T12:25:04.210Z,3.17
2023-05-14T12:27:31.125Z,3.10
2023-05-14T12:30:34.661Z,4.57
2023-05-14T12:32:52.783Z,4.33
2023-05-14T12:35:21.080Z,3.93
2023-05-14T12:37:47.913Z,6.43
2023-05-14T12:40:14.769Z,4.60
2023-05-14T12:42:41.700Z,5.17
2023-05-14T12:45:08.811Z,7.90
2023-05-14T12:47:37.003Z,4.50
2023-05-14T12:50:04.571Z,5.60
2023-05-14T12:55:01.557Z,3.77
2023-05-14T12:57:29.862Z,6.27
2023-05-14T12:59:57.566Z,4.60
2023-05-14T13:02:24.367Z,4.70
2023-05-14T13:04:51.134Z,5.23
2023-05-14T13:07:18.485Z,4.33
2023-05-14T13:09:45.382Z,3.50
2023-05-14T13:12:12.072Z,3.53
2023-05-14T13:14:38.785Z,3.97
2023-05-14T13:17:07.057Z,3.80
2023-05-14T13:19:33.882Z,4.10
2023-05-14T13:22:00.813Z,5.03
2023-05-14T13:24:27.699Z,6.80
2023-05-14T13:26:54.426Z,4.07
2023-05-14T13:29:21.189Z,4.80
2023-05-14T13:31:48.043Z,4.70
2023-05-14T13:34:14.930Z,5.60
2023-05-14T13:36:43.581Z,4.00
2023-05-14T13:39:13.105Z,3.90
2023-05-14T13:41:41.127Z,5.20
2023-05-14T13:44:07.971Z,6.07
2023-05-14T13:46:34.859Z,6.23
2023-05-14T13:49:01.858Z,4.57
2023-05-14T13:51:28.692Z,4.20
2023-05-14T13:53:55.721Z,4.53
2023-05-14T13:56:22.878Z,4.57
2023-05-14T13:58:49.735Z,4.83
2023-05-14T14:01:16.438Z,3.83
2023-05-14T14:03:43.266Z,6.50
2023-05-14T14:06:10.012Z,4.50
2023-05-14T14:08:36.797Z,6.57
2023-05-14T14:11:03.602Z,5.60
2023-05-14T14:13:30.420Z,5.40
2023-05-14T14:15:57.320Z,5.37
2023-05-14T14:18:24.185Z,7.23
2023-05-14T14:20:51.047Z,4.67
2023-05-14T14:23:18.001Z,4.47
2023-05-14T14:25:44.943Z,3.30
2023-05-14T14:28:11.676Z,5.80
2023-05-14T14:30:38.466Z,3.37
2023-05-14T14:33:05.349Z,3.73
2023-05-14T14:35:33.447Z,3.80
2023-05-14T14:38:00.286Z,4.13
2023-05-14T14:40:27.119Z,3.60
2023-05-14T14:42:53.918Z,3.70
2023-05-14T14:45:20.740Z,3.40
2023-05-14T14:47:49.528Z,3.80
2023-05-14T14:50:16.464Z,6.57
2023-05-14T14:52:45.671Z,3.57
2023-05-14T14:55:13.063Z,4.30
2023-05-14T14:57:39.908Z,3.37
2023-05-14T15:00:09.310Z,3.33
2023-05-14T15:02:38.458Z,5.53
2023-05-14T15:05:06.063Z,3.40
2023-05-14T15:07:33.010Z,3.73
2023-05-14T15:10:00.059Z,5.13
2023-05-14T15:12:26.862Z,4.07
2023-05-14T15:14:53.605Z,4.00
2023-05-14T15:17:20.458Z,3.30
2023-05-14T15:19:47.569Z,3.13
2023-05-14T15:22:14.362Z,3.17
2023-05-14T15:24:41.171Z,4.77
2023-05-14T15:27:07.979Z,5.10
2023-05-14T15:29:34.691Z,3.80
2023-05-14T15:32:02.347Z,7.47
2023-05-14T15:34:29.216Z,3.90
2023-05-14T15:36:55.997Z,3.70
2023-05-14T15:39:22.725Z,4.00
2023-05-14T15:41:49.818Z,3.10
2023-05-14T15:44:16.606Z,5.00
2023-05-14T15:46:43.355Z,11.13
2023-05-14T15:49:10.269Z,3.43
2023-05-14T15:51:37.063Z,3.70
2023-05-14T15:54:04.117Z,2.70
2023-05-14T15:56:31.318Z,3.60
2023-05-14T15:58:58.130Z,3.53
2023-05-14T16:01:24.890Z,4.10
2023-05-14T16:03:52.740Z,4.13
2023-05-14T16:06:19.635Z,4.53
2023-05-14T16:08:46.458Z,5.77
2023-05-14T16:11:13.242Z,4.20
2023-05-14T16:13:41.517Z,3.67
2023-05-14T16:16:08.665Z,3.30
2023-05-14T16:18:35.482Z,3.93
2023-05-14T16:21:02.395Z,4.77
2023-05-14T16:23:29.191Z,4.23
2023-05-14T16:25:55.959Z,3.10
2023-05-14T16:28:23.027Z,5.73
2023-05-14T16:30:49.891Z,3.20
2023-05-14T16:33:16.658Z,3.40
2023-05-14T16:35:43.680Z,3.80
2023-05-14T16:38:10.579Z,4.80
2023-05-14T16:40:37.369Z,4.47
2023-05-14T16:43:04.243Z,3.50
2023-05-14T16:45:32.621Z,3.20
2023-05-14T16:48:01.043Z,3.93
2023-05-14T16:50:28.131Z,4.47
2023-05-14T16:52:54.951Z,3.20
2023-05-14T16:55:21.898Z,3.40
2023-05-14T16:57:49.072Z,3.90
2023-05-14T17:00:16.466Z,5.00
2023-05-14T17:02:43.418Z,7.77
2023-05-14T17:05:10.412Z,4.40
2023-05-14T17:07:38.839Z,4.50
2023-05-14T17:10:06.455Z,9.13
2023-05-14T17:12:33.260Z,2.60
2023-05-14T17:15:02.997Z,6.13
2023-05-14T17:17:32.656Z,4.33
2023-05-14T17:20:00.227Z,8.40
2023-05-14T17:22:27.304Z,4.57
2023-05-14T17:24:54.273Z,8.67
2023-05-14T17:27:21.058Z,6.03
2023-05-14T17:29:50.938Z,5.03
2023-05-14T17:32:18.394Z,4.23
2023-05-14T17:34:45.240Z,3.30
2023-05-14T17:37:12.176Z,3.10
2023-05-14T17:39:38.908Z,5.13
2023-05-14T17:42:06.256Z,4.27
2023-05-14T17:44:33.131Z,3.27
2023-05-14T17:47:00.403Z,4.10
2023-05-14T17:49:27.336Z,3.33
2023-05-14T17:51:54.087Z,3.30
2023-05-14T17:54:20.914Z,3.97
2023-05-14T17:56:50.890Z,7.40
2023-05-14T17:59:17.899Z,3.33
2023-05-14T18:01:44.769Z,3.83
2023-05-14T18:04:11.710Z,3.00
2023-05-14T18:06:38.619Z,3.93
2023-05-14T18:09:05.451Z,3.63
2023-05-14T18:11:35.591Z,3.27
2023-05-14T18:14:02.882Z,2.70
2023-05-14T18:16:29.900Z,3.87
2023-05-14T18:18:56.819Z,3.33
2023-05-14T18:21:23.652Z,3.97
2023-05-14T18:23:50.395Z,3.67
2023-05-14T18:26:17.238Z,3.00
2023-05-14T18:28:44.091Z,6.10
2023-05-14T18:31:10.937Z,4.03
2023-05-14T18:33:37.740Z,5.20
2023-05-14T18:36:04.728Z,3.90
2023-05-14T18:38:31.628Z,2.57
2023-05-14T18:40:58.441Z,3.70
2023-05-14T18:43:25.309Z,3.77
2023-05-14T18:45:52.071Z,4.80
2023-05-14T18:48:18.914Z,3.33
2023-05-14T18:50:45.717Z,3.00
2023-05-14T18:53:12.500Z,2.70
2023-05-14T18:55:40.037Z,4.67
2023-05-14T18:58:06.951Z,4.03
2023-05-14T19:00:33.723Z,3.30
2023-05-14T19:03:00.544Z,3.07
2023-05-14T19:05:27.959Z,3.87
2023-05-14T19:07:54.791Z,4.30
2023-05-14T19:10:21.593Z,4.40
2023-05-14T19:12:48.383Z,3.63
2023-05-14T19:15:15.553Z,3.80
2023-05-14T19:17:42.566Z,3.00
2023-05-14T19:20:10.114Z,3.93
2023-05-14T19:22:36.864Z,6.47
2023-05-14T19:25:05.058Z,3.40
2023-05-14T19:27:32.882Z,3.10
2023-05-14T19:29:59.656Z,3.30
2023-05-14T19:32:26.420Z,4.43
2023-05-14T19:34:53.291Z,2.63
2023-05-14T19:37:20.083Z,4.57
2023-05-14T19:39:46.863Z,2.73
2023-05-14T19:42:13.654Z,2.90
2023-05-14T19:44:40.386Z,3.10
2023-05-14T19:47:07.714Z,2.97
2023-05-14T19:49:34.613Z,2.60
2023-05-14T19:52:01.379Z,2.70
2023-05-14T19:54:28.136Z,4.10
2023-05-14T19:56:54.940Z,2.83
2023-05-14T19:59:21.671Z,3.73
2023-05-14T20:01:48.386Z,2.97
2023-05-14T20:04:16.173Z,3.90
2023-05-14T20:06:45.460Z,4.47
2023-05-14T20:09:13.596Z,2.63
2023-05-14T20:11:40.617Z,2.90
2023-05-14T20:14:07.498Z,7.63
2023-05-14T20:16:34.375Z,3.03
2023-05-14T20:19:01.187Z,3.27
2023-05-14T20:21:28.068Z,3.40
2023-05-14T20:23:54.811Z,4.20
2023-05-14T20:26:21.828Z,4.63
2023-05-14T20:28:48.647Z,3.43
2023-05-14T20:31:15.438Z,3.67
2023-05-14T20:33:42.267Z,5.40
2023-05-14T20:36:09.070Z,3.80
2023-05-14T20:38:35.913Z,3.10
2023-05-14T20:41:02.975Z,3.03
2023-05-14T20:43:29.778Z,4.03
2023-05-14T20:45:57.790Z,3.30
2023-05-14T20:48:24.715Z,3.63
2023-05-14T20:50:51.425Z,3.13
2023-05-14T20:53:18.164Z,3.43
2023-05-14T20:55:44.960Z,3.33
2023-05-14T20:58:11.689Z,5.50
2023-05-14T21:00:39.247Z,3.67
2023-05-14T21:03:06.190Z,3.47
2023-05-14T21:05:33.204Z,4.00
2023-05-14T21:07:59.892Z,3.30
2023-05-14T21:10:26.884Z,6.70
2023-05-14T21:12:53.984Z,3.43
2023-05-14T21:15:20.896Z,5.10
2023-05-14T21:17:47.630Z,3.83
2023-05-14T21:20:15.626Z,4.27
2023-05-14T21:22:42.447Z,3.00
2023-05-14T21:25:09.650Z,3.17
2023-05-14T21:27:36.771Z,3.07
2023-05-14T21:30:03.730Z,4.20
2023-05-14T21:32:30.658Z,9.80
2023-05-14T21:34:57.441Z,3.97
2023-05-14T21:37:24.206Z,3.80
2023-05-14T21:39:51.014Z,5.50
2023-05-14T21:42:18.906Z,3.60
2023-05-14T21:44:45.647Z,3.50
2023-05-14T21:47:12.473Z,4.43
2023-05-14T21:49:39.156Z,5.67
2023-05-14T21:52:06.003Z,3.00
2023-05-14T21:54:32.721Z,3.20
2023-05-14T21:56:59.698Z,5.20
2023-05-14T21:59:26.380Z,3.03
2023-05-14T22:02:06.294Z,4.37
2023-05-14T22:04:33.960Z,6.27
2023-05-14T22:07:00.655Z,3.37
2023-05-14T22:09:27.454Z,6.03
2023-05-14T22:11:54.204Z,3.10
2023-05-14T22:14:20.909Z,18.13
2023-05-14T22:16:47.649Z,3.00
2023-05-14T22:19:16.532Z,3.00
2023-05-14T22:21:43.462Z,4.20
2023-05-14T22:24:10.318Z,4.97
2023-05-14T22:26:37.108Z,3.20
2023-05-14T22:29:03.813Z,4.07
2023-05-14T22:31:30.619Z,4.03
2023-05-14T22:33:57.373Z,3.47
2023-05-14T22:36:24.124Z,3.57
2023-05-14T22:38:50.882Z,14.90
2023-05-14T22:41:17.722Z,3.27
2023-05-14T22:43:44.599Z,3.83
2023-05-14T22:46:11.398Z,3.30
2023-05-14T22:48:38.099Z,4.67
2023-05-14T22:51:05.055Z,3.03
2023-05-14T22:53:31.855Z,4.13
2023-05-14T22:55:58.671Z,3.10
2023-05-14T22:58:25.494Z,3.20
2023-05-14T23:00:52.468Z,4.20
2023-05-14T23:03:19.197Z,8.17
2023-05-14T23:05:45.981Z,3.30
2023-05-14T23:08:12.741Z,3.63
2023-05-14T23:10:39.483Z,7.40
2023-05-14T23:13:06.300Z,4.20
2023-05-14T23:15:33.423Z,3.40
2023-05-14T23:18:00.340Z,5.57
2023-05-14T23:20:27.134Z,6.00
2023-05-14T23:22:54.132Z,7.60
2023-05-14T23:25:20.880Z,3.83
2023-05-14T23:27:48.121Z,5.20
2023-05-14T23:30:14.913Z,3.23
2023-05-14T23:32:41.716Z,4.43
2023-05-14T23:35:08.837Z,3.80
2023-05-14T23:37:41.644Z,3.27
2023-05-14T23:40:09.528Z,3.80
2023-05-14T23:42:36.289Z,3.77
2023-05-14T23:45:03.260Z,6.27
2023-05-14T23:47:30.273Z,3.93
2023-05-14T23:49:57.089Z,2.90
2023-05-14T23:52:23.876Z,3.97
2023-05-14T23:54:50.594Z,3.43
2023-05-14T23:57:17.371Z,3.43
2023-05-14T23:59:44.210Z,3.40
